createdAt,value
2022-08-05T00:20:41.996Z,12.40
2022-08-05T00:42:35.534Z,13.90
2022-08-05T01:04:26.654Z,11.50
2022-08-05T01:26:37.828Z,12.70
2022-08-05T01:48:24.602Z,16.60
2022-08-05T02:10:17.327Z,14.80
2022-08-05T02:32:05.368Z,12.50
2022-08-05T02:53:54.715Z,18.00
2022-08-05T03:15:42.596Z,12.70
2022-08-05T03:37:28.419Z,14.20
2022-08-05T03:59:46.830Z,16.20
2022-08-05T04:22:10.322Z,16.80
2022-08-05T04:43:48.084Z,15.50
2022-08-05T05:06:40.240Z,14.80
2022-08-05T05:27:53.515Z,14.60
2022-08-05T05:49:43.323Z,15.20
2022-08-05T06:11:29.257Z,17.80
2022-08-05T06:33:19.180Z,11.30
2022-08-05T06:55:12.032Z,21.50
2022-08-05T07:17:59.946Z,15.20
2022-08-05T07:39:08.494Z,18.00
2022-08-05T08:01:12.094Z,12.50
2022-08-05T08:22:59.984Z,15.50
2022-08-05T08:45:16.860Z,15.70
2022-08-05T09:06:55.335Z,12.70
2022-08-05T09:28:42.964Z,8.80
2022-08-05T09:50:44.710Z,7.40
2022-08-05T10:12:33.618Z,9.30
2022-08-05T10:34:25.780Z,6.30
2022-08-05T10:56:25.580Z,8.30
2022-08-05T11:18:30.091Z,5.60
2022-08-05T11:40:18.396Z,8.60
2022-08-05T12:02:24.068Z,4.10
2022-08-05T12:24:17.599Z,9.50
2022-08-05T12:46:03.809Z,5.40
2022-08-05T13:07:59.686Z,9.60
2022-08-05T13:29:59.587Z,6.30
2022-08-05T13:51:52.051Z,6.70
2022-08-05T14:13:40.108Z,6.50
2022-08-05T14:57:53.917Z,7.10
2022-08-05T15:19:35.932Z,5.90
2022-08-05T15:41:26.455Z,4.80
2022-08-05T16:03:33.837Z,4.30
2022-08-05T16:25:19.874Z,5.10
2022-08-05T16:47:06.177Z,7.80
2022-08-05T17:09:12.307Z,6.70
2022-08-05T17:30:59.727Z,8.50
2022-08-05T17:52:54.880Z,9.90
2022-08-05T18:14:43.037Z,12.00
2022-08-05T18:36:32.263Z,10.80
2022-08-05T18:58:27.240Z,13.90
2022-08-05T19:20:16.034Z,14.60
2022-08-05T19:42:07.194Z,15.50
2022-08-05T20:03:54.870Z,12.60
2022-08-05T20:25:42.435Z,10.50
2022-08-05T20:47:32.286Z,11.10
2022-08-05T21:09:18.518Z,10.90
2022-08-05T21:31:05.519Z,11.10
2022-08-05T21:52:51.202Z,11.80
2022-08-05T22:14:38.086Z,10.50
2022-08-05T22:36:24.830Z,13.40
2022-08-05T22:58:11.784Z,10.10
2022-08-05T23:20:02.573Z,9.20
2022-08-05T23:41:48.967Z,11.10
